createdAt,value
2018-11-11T00:00:01.236Z,100272.30
2018-11-11T00:03:05.917Z,100279.94
2018-11-11T00:06:10.208Z,100272.06
2018-11-11T00:09:14.472Z,100263.91
2018-11-11T00:12:18.742Z,100261.50
2018-11-11T00:15:23.042Z,100276.22
2018-11-11T00:18:30.749Z,100267.34
2018-11-11T00:21:35.103Z,100262.14
2018-11-11T00:24:39.382Z,100261.86
2018-11-11T00:27:43.662Z,100271.06
2018-11-11T00:30:47.904Z,100274.09
2018-11-11T00:33:52.185Z,100274.66
2018-11-11T00:36:56.506Z,100273.66
2018-11-11T00:40:00.768Z,100270.93
2018-11-11T00:43:05.107Z,100274.00
2018-11-11T00:46:09.396Z,100274.87
2018-11-11T00:49:14.862Z,100278.76
2018-11-11T00:52:19.099Z,100278.47
2018-11-11T00:55:23.356Z,100281.48
2018-11-11T00:58:27.595Z,100284.44
2018-11-11T01:01:31.914Z,100278.23
2018-11-11T01:04:36.159Z,100288.59
2018-11-11T01:07:41.362Z,100295.39
2018-11-11T01:10:45.636Z,100288.34
2018-11-11T01:13:49.918Z,100281.23
2018-11-11T01:16:54.226Z,100287.27
2018-11-11T01:19:58.498Z,100287.55
2018-11-11T01:23:02.793Z,100297.63
2018-11-11T01:26:07.164Z,100294.91
2018-11-11T01:29:11.422Z,100297.31
2018-11-11T01:32:15.705Z,100301.64
2018-11-11T01:35:20.009Z,100302.47
2018-11-11T01:38:24.293Z,100297.80
2018-11-11T01:41:28.597Z,100304.91
2018-11-11T01:44:32.922Z,100312.77
2018-11-11T01:47:37.208Z,100296.92
2018-11-11T01:50:41.505Z,100299.95
2018-11-11T01:53:45.778Z,100295.91
2018-11-11T01:56:50.073Z,100293.16
2018-11-11T01:59:54.348Z,100292.56
2018-11-11T02:02:58.638Z,100294.44
2018-11-11T02:06:02.943Z,100293.61
2018-11-11T02:09:10.129Z,100291.97
2018-11-11T02:12:14.389Z,100296.56
2018-11-11T02:15:19.080Z,100289.25
2018-11-11T02:18:23.363Z,100289.53
2018-11-11T02:21:27.648Z,100286.77
2018-11-11T02:24:31.983Z,100282.69
2018-11-11T02:27:36.234Z,100276.17
2018-11-11T02:30:40.508Z,100275.61
2018-11-11T02:33:44.768Z,100275.84
2018-11-11T02:36:49.096Z,100278.84
2018-11-11T02:39:53.377Z,100275.05
2018-11-11T02:42:57.657Z,100277.25
2018-11-11T02:46:01.965Z,100275.02
2018-11-11T02:49:06.281Z,100280.73
2018-11-11T02:52:10.662Z,100285.65
2018-11-11T02:55:15.329Z,100289.69
2018-11-11T02:58:19.583Z,100280.17
2018-11-11T03:01:23.853Z,100282.65
2018-11-11T03:04:28.229Z,100281.29
2018-11-11T03:07:32.457Z,100292.41
2018-11-11T03:10:36.779Z,100293.45
2018-11-11T03:13:41.013Z,100293.77
2018-11-11T03:16:45.290Z,100291.53
2018-11-11T03:19:49.583Z,100277.73
2018-11-11T03:22:53.845Z,100271.45
2018-11-11T03:25:58.205Z,100278.84
2018-11-11T03:29:02.452Z,100284.53
2018-11-11T03:32:06.931Z,100290.84
2018-11-11T03:35:12.428Z,100287.84
2018-11-11T03:38:16.726Z,100279.69
2018-11-11T03:41:21.014Z,100277.48
2018-11-11T03:44:25.330Z,100275.25
2018-11-11T03:47:29.616Z,100284.17
2018-11-11T03:50:33.910Z,100291.77
2018-11-11T03:53:38.545Z,100284.97
2018-11-11T03:56:42.795Z,100284.13
2018-11-11T03:59:47.032Z,100275.98
2018-11-11T04:02:51.289Z,100270.78
2018-11-11T04:05:55.613Z,100263.98
2018-11-11T04:08:59.887Z,100264.27
2018-11-11T04:12:04.221Z,100266.45
2018-11-11T04:15:10.406Z,100269.11
2018-11-11T04:18:14.720Z,100281.02
2018-11-11T04:21:18.977Z,100281.06
2018-11-11T04:24:23.265Z,100287.82
2018-11-11T04:27:27.542Z,100287.27
2018-11-11T04:30:31.838Z,100288.86
2018-11-11T04:33:36.132Z,100291.06
2018-11-11T04:36:40.592Z,100285.86
2018-11-11T04:39:44.861Z,100292.46
2018-11-11T04:42:49.127Z,100295.78
2018-11-11T04:45:53.411Z,100292.53
2018-11-11T04:48:57.664Z,100293.05
2018-11-11T04:52:01.933Z,100288.70
2018-11-11T04:55:06.689Z,100289.50
2018-11-11T04:58:11.015Z,100280.34
2018-11-11T05:01:15.339Z,100281.42
2018-11-11T05:04:19.555Z,100278.70
2018-11-11T05:07:23.847Z,100285.42
2018-11-11T05:10:28.125Z,100279.77
2018-11-11T05:13:32.470Z,100285.42
2018-11-11T05:16:36.778Z,100289.18
2018-11-11T05:19:41.053Z,100286.14
2018-11-11T05:22:45.345Z,100282.06
2018-11-11T05:25:49.624Z,100288.58
2018-11-11T05:28:53.929Z,100282.30
2018-11-11T05:31:58.197Z,100284.74
2018-11-11T05:35:02.456Z,100290.95
2018-11-11T05:38:06.729Z,100285.42
2018-11-11T05:41:11.042Z,100294.86
2018-11-11T05:44:15.307Z,100291.31
2018-11-11T05:47:19.632Z,100293.98
2018-11-11T05:50:23.910Z,100299.94
2018-11-11T05:53:28.184Z,100302.18
2018-11-11T05:56:32.456Z,100303.26
2018-11-11T05:59:36.784Z,100309.30
2018-11-11T06:02:41.046Z,100313.97
2018-11-11T06:05:45.324Z,100303.61
2018-11-11T06:08:49.939Z,100311.89
2018-11-11T06:11:54.284Z,100311.89
2018-11-11T06:14:58.762Z,100318.13
2018-11-11T06:18:03.016Z,100313.53
2018-11-11T06:21:07.310Z,100309.22
2018-11-11T06:24:11.567Z,100309.26
2018-11-11T06:27:15.861Z,100314.29
2018-11-11T06:30:20.143Z,100316.17
2018-11-11T06:33:24.438Z,100317.02
2018-11-11T06:36:28.857Z,100320.02
2018-11-11T06:39:33.134Z,100324.09
2018-11-11T06:42:37.592Z,100323.81
2018-11-11T06:45:41.903Z,100331.45
2018-11-11T06:48:46.178Z,100321.33
2018-11-11T06:51:50.450Z,100331.73
2018-11-11T06:54:54.737Z,100330.30
2018-11-11T06:57:59.077Z,100328.13
2018-11-11T07:01:03.382Z,100332.20
2018-11-11T07:04:07.640Z,100341.73
2018-11-11T07:07:11.934Z,100337.64
2018-11-11T07:10:16.240Z,100342.89
2018-11-11T07:13:20.491Z,100350.00
2018-11-11T07:16:24.795Z,100341.36
2018-11-11T07:19:29.072Z,100341.41
2018-11-11T07:22:33.368Z,100346.08
2018-11-11T07:25:37.635Z,100353.88
2018-11-11T07:28:41.908Z,100354.64
2018-11-11T07:31:46.174Z,100351.12
2018-11-11T07:34:50.463Z,100353.84
2018-11-11T07:37:54.739Z,100350.33
2018-11-11T07:40:59.003Z,100346.08
2018-11-11T07:44:03.745Z,100346.56
2018-11-11T07:47:08.029Z,100349.20
2018-11-11T07:50:12.627Z,100344.08
2018-11-11T07:53:16.939Z,100350.64
2018-11-11T07:56:21.215Z,100346.01
2018-11-11T07:59:25.489Z,100349.92
2018-11-11T08:02:29.792Z,100353.52
2018-11-11T08:05:34.047Z,100350.80
2018-11-11T08:08:38.338Z,100351.97
2018-11-11T08:11:54.713Z,100353.48
2018-11-11T08:14:58.974Z,100349.91
2018-11-11T08:18:03.231Z,100356.69
2018-11-11T08:21:07.538Z,100357.64
2018-11-11T08:24:11.835Z,100361.72
2018-11-11T08:27:16.109Z,100374.15
2018-11-11T08:30:20.387Z,100366.78
2018-11-11T08:33:24.733Z,100371.74
2018-11-11T08:36:28.972Z,100362.53
2018-11-11T08:39:33.288Z,100364.52
2018-11-11T08:42:37.621Z,100361.59
2018-11-11T08:45:41.921Z,100370.45
2018-11-11T08:48:46.205Z,100373.50
2018-11-11T08:51:50.456Z,100376.22
2018-11-11T08:54:54.704Z,100378.17
2018-11-11T08:57:59.055Z,100380.97
2018-11-11T09:01:03.248Z,100384.50
2018-11-11T09:04:07.695Z,100391.94
2018-11-11T09:07:11.940Z,100389.80
2018-11-11T09:10:16.178Z,100380.80
2018-11-11T09:13:20.449Z,100384.45
2018-11-11T09:16:24.737Z,100386.69
2018-11-11T09:19:29.008Z,100387.06
2018-11-11T09:22:33.290Z,100383.02
2018-11-11T09:25:37.559Z,100387.66
2018-11-11T09:28:41.837Z,100381.38
2018-11-11T09:31:46.100Z,100385.20
2018-11-11T09:34:50.346Z,100379.41
2018-11-11T09:37:54.621Z,100379.46
2018-11-11T09:40:58.879Z,100386.28
2018-11-11T09:44:03.163Z,100384.05
2018-11-11T09:47:07.426Z,100388.70
2018-11-11T09:50:14.128Z,100388.73
2018-11-11T09:53:18.413Z,100381.16
2018-11-11T09:56:22.659Z,100375.02
2018-11-11T09:59:26.944Z,100379.42
2018-11-11T10:02:31.253Z,100386.23
2018-11-11T10:05:40.227Z,100379.91
2018-11-11T10:09:02.608Z,100392.19
2018-11-11T10:12:12.113Z,100383.73
2018-11-11T10:15:29.047Z,100384.81
2018-11-11T10:18:44.189Z,100393.52
2018-11-11T10:21:56.545Z,100390.18
2018-11-11T10:25:35.984Z,100390.95
2018-11-11T10:28:48.964Z,100409.17
2018-11-11T10:31:58.446Z,100406.92
2018-11-11T10:35:11.024Z,100407.35
2018-11-11T10:38:23.573Z,100405.89
2018-11-11T10:42:02.338Z,100403.38
2018-11-11T10:45:10.826Z,100401.15
2018-11-11T10:48:18.920Z,100401.68
2018-11-11T10:51:23.165Z,100397.66
2018-11-11T10:54:27.503Z,100409.11
2018-11-11T10:57:31.721Z,100398.21
2018-11-11T11:00:41.305Z,100401.52
2018-11-11T11:03:45.546Z,100404.84
2018-11-11T11:06:55.006Z,100402.42
2018-11-11T11:09:59.264Z,100406.27
2018-11-11T11:13:03.562Z,100409.30
2018-11-11T11:16:07.850Z,100413.73
2018-11-11T11:19:12.087Z,100414.54
2018-11-11T11:22:16.335Z,100408.84
2018-11-11T11:25:20.592Z,100414.91
2018-11-11T11:28:24.833Z,100415.16
2018-11-11T11:31:29.132Z,100414.91
2018-11-11T11:34:33.382Z,100419.25
2018-11-11T11:37:38.163Z,100413.17
2018-11-11T11:40:42.537Z,100420.55
2018-11-11T11:43:46.804Z,100420.48
2018-11-11T11:46:51.077Z,100428.66
2018-11-11T11:49:55.333Z,100430.34
2018-11-11T11:52:59.668Z,100437.68
2018-11-11T11:56:03.869Z,100438.17
2018-11-11T11:59:08.153Z,100431.86
2018-11-11T12:02:12.477Z,100441.30
2018-11-11T12:05:16.675Z,100436.30
2018-11-11T12:08:20.928Z,100438.93
2018-11-11T12:11:25.168Z,100439.98
2018-11-11T12:14:29.399Z,100438.34
2018-11-11T12:17:33.633Z,100434.78
2018-11-11T12:20:38.349Z,100438.86
2018-11-11T12:23:42.609Z,100434.50
2018-11-11T12:26:46.846Z,100428.80
2018-11-11T12:29:51.112Z,100434.50
2018-11-11T12:32:55.384Z,100437.61
2018-11-11T12:35:59.629Z,100445.12
2018-11-11T12:39:04.372Z,100445.05
2018-11-11T12:42:08.593Z,100442.53
2018-11-11T12:45:13.604Z,100445.05
2018-11-11T12:48:17.824Z,100442.68
2018-11-11T12:51:22.110Z,100442.16
2018-11-11T12:54:26.371Z,100436.45
2018-11-11T12:57:30.645Z,100440.58
2018-11-11T13:00:34.901Z,100435.97
2018-11-11T13:03:39.161Z,100445.78
2018-11-11T13:06:43.414Z,100450.40
2018-11-11T13:09:47.654Z,100448.75
2018-11-11T13:12:51.938Z,100453.30
2018-11-11T13:15:56.225Z,100446.38
2018-11-11T13:19:00.496Z,100448.23
2018-11-11T13:22:05.033Z,100444.67
2018-11-11T13:25:10.418Z,100448.16
2018-11-11T13:28:14.674Z,100456.53
2018-11-11T13:31:18.959Z,100453.77
2018-11-11T13:34:23.232Z,100452.34
2018-11-11T13:37:27.540Z,100456.15
2018-11-11T13:40:31.789Z,100454.82
2018-11-11T13:43:36.328Z,100458.73
2018-11-11T13:46:40.740Z,100447.11
2018-11-11T13:49:44.843Z,100451.83
2018-11-11T13:52:49.396Z,100454.91
2018-11-11T13:55:53.699Z,100454.45
2018-11-11T13:58:57.977Z,100464.09
2018-11-11T14:02:02.236Z,100464.86
2018-11-11T14:05:07.405Z,100462.66
2018-11-11T14:08:11.697Z,100458.81
2018-11-11T14:11:16.092Z,100460.25
2018-11-11T14:14:20.194Z,100467.55
2018-11-11T14:17:24.461Z,100468.91
2018-11-11T14:20:28.755Z,100468.91
2018-11-11T14:23:33.019Z,100470.55
2018-11-11T14:26:37.301Z,100478.97
2018-11-11T14:29:41.630Z,100481.41
2018-11-11T14:32:46.801Z,100484.53
2018-11-11T14:35:51.077Z,100482.81
2018-11-11T14:38:55.354Z,100492.42
2018-11-11T14:41:59.597Z,100495.36
2018-11-11T14:45:03.855Z,100490.71
2018-11-11T14:48:08.117Z,100495.28
2018-11-11T14:51:12.389Z,100500.14
2018-11-11T14:54:16.631Z,100492.56
2018-11-11T14:57:20.884Z,100494.45
2018-11-11T15:00:32.643Z,100498.33
2018-11-11T15:03:37.034Z,100496.92
2018-11-11T15:06:41.288Z,100501.02
2018-11-11T15:09:45.537Z,100498.81
2018-11-11T15:12:49.802Z,100500.73
2018-11-11T15:15:54.048Z,100495.45
2018-11-11T15:18:58.357Z,100499.66
2018-11-11T15:22:02.617Z,100502.66
2018-11-11T15:25:09.934Z,100509.71
2018-11-11T15:28:14.172Z,100504.22
2018-11-11T15:31:18.575Z,100505.06
2018-11-11T15:34:22.764Z,100502.82
2018-11-11T15:37:27.093Z,100506.91
2018-11-11T15:40:33.517Z,100505.30
2018-11-11T15:43:37.785Z,100509.67
2018-11-11T15:46:42.455Z,100514.28
2018-11-11T15:49:46.726Z,100517.56
2018-11-11T15:52:53.241Z,100521.94
2018-11-11T15:55:57.495Z,100527.63
2018-11-11T15:59:01.787Z,100529.86
2018-11-11T16:02:06.445Z,100539.40
2018-11-11T16:05:11.564Z,100542.65
2018-11-11T16:08:16.005Z,100554.11
2018-11-11T16:11:20.240Z,100567.77
2018-11-11T16:14:24.512Z,100567.77
2018-11-11T16:17:28.786Z,100569.61
2018-11-11T16:20:33.154Z,100568.49
2018-11-11T16:23:37.487Z,100562.09
2018-11-11T16:26:41.865Z,100566.90
2018-11-11T16:29:47.926Z,100564.86
2018-11-11T16:32:53.221Z,100568.58
2018-11-11T16:35:59.414Z,100566.63
2018-11-11T16:39:07.710Z,100574.15
2018-11-11T16:42:14.619Z,100579.19
2018-11-11T16:45:20.381Z,100580.03
2018-11-11T16:48:24.643Z,100574.30
2018-11-11T16:51:28.974Z,100578.38
2018-11-11T16:54:33.323Z,100570.02
2018-11-11T16:57:37.615Z,100571.14
2018-11-11T17:00:41.857Z,100581.15
2018-11-11T17:03:46.110Z,100581.34
2018-11-11T17:06:50.352Z,100581.03
2018-11-11T17:09:54.610Z,100581.03
2018-11-11T17:13:00.285Z,100593.05
2018-11-11T17:16:04.559Z,100584.88
2018-11-11T17:19:08.816Z,100585.11
2018-11-11T17:22:13.142Z,100583.15
2018-11-11T17:25:18.340Z,100585.83
2018-11-11T17:28:22.606Z,100590.44
2018-11-11T17:31:26.841Z,100582.22
2018-11-11T17:34:31.110Z,100583.22
2018-11-11T17:37:35.472Z,100588.30
2018-11-11T17:40:39.749Z,100597.17
2018-11-11T17:43:44.047Z,100595.48
2018-11-11T17:46:48.298Z,100596.19
2018-11-11T17:49:52.586Z,100597.16
2018-11-11T17:52:57.071Z,100592.34
2018-11-11T17:56:01.415Z,100598.20
2018-11-11T17:59:05.921Z,100602.83
2018-11-11T18:02:10.197Z,100597.39
2018-11-11T18:05:16.290Z,100597.39
2018-11-11T18:08:20.551Z,100599.80
2018-11-11T18:11:24.796Z,100600.87
2018-11-11T18:14:29.036Z,100597.86
2018-11-11T18:17:33.299Z,100606.27
2018-11-11T18:20:37.592Z,100605.95
2018-11-11T18:23:41.862Z,100614.11
2018-11-11T18:26:46.178Z,100617.38
2018-11-11T18:29:50.454Z,100614.42
2018-11-11T18:32:54.717Z,100611.99
2018-11-11T18:35:58.986Z,100613.87
2018-11-11T18:39:03.253Z,100625.97
2018-11-11T18:42:07.526Z,100627.61
2018-11-11T18:45:14.405Z,100634.42
2018-11-11T18:48:18.670Z,100630.34
2018-11-11T18:51:22.905Z,100644.63
2018-11-11T18:54:27.165Z,100649.31
2018-11-11T18:57:31.482Z,100657.86
2018-11-11T19:00:36.195Z,100658.14
2018-11-11T19:03:40.627Z,100657.53
2018-11-11T19:06:45.010Z,100655.89
2018-11-11T19:09:49.283Z,100649.31
2018-11-11T19:12:54.787Z,100652.95
2018-11-11T19:15:59.025Z,100666.47
2018-11-11T19:19:03.974Z,100658.72
2018-11-11T19:22:08.241Z,100666.28
2018-11-11T19:25:15.291Z,100674.16
2018-11-11T19:28:19.571Z,100679.75
2018-11-11T19:31:23.792Z,100692.55
2018-11-11T19:34:28.038Z,100697.44
2018-11-11T19:37:32.416Z,100698.88
2018-11-11T19:40:36.684Z,100700.62
2018-11-11T19:43:40.944Z,100709.59
2018-11-11T19:46:45.247Z,100719.72
2018-11-11T19:49:49.591Z,100722.81
2018-11-11T19:52:54.786Z,100720.67
2018-11-11T19:55:59.093Z,100728.63
2018-11-11T19:59:03.316Z,100734.28
2018-11-11T20:02:08.027Z,100727.80
2018-11-11T20:05:13.492Z,100738.53
2018-11-11T20:08:17.748Z,100744.21
2018-11-11T20:11:22.018Z,100751.68
2018-11-11T20:14:26.317Z,100750.17
2018-11-11T20:17:30.603Z,100754.05
2018-11-11T20:20:37.376Z,100760.42
2018-11-11T20:23:41.671Z,100767.62
2018-11-11T20:26:45.885Z,100769.06
2018-11-11T20:29:50.134Z,100780.47
2018-11-11T20:32:54.420Z,100770.27
2018-11-11T20:35:58.706Z,100778.28
2018-11-11T20:39:02.973Z,100789.10
2018-11-11T20:42:07.228Z,100783.56
2018-11-11T20:45:12.625Z,100780.62
2018-11-11T20:48:16.906Z,100777.31
2018-11-11T20:51:21.178Z,100785.48
2018-11-11T20:54:25.429Z,100782.44
2018-11-11T20:57:30.613Z,100791.66
2018-11-11T21:00:36.379Z,100795.12
2018-11-11T21:03:40.880Z,100801.58
2018-11-11T21:06:45.152Z,100808.27
2018-11-11T21:09:49.426Z,100807.38
2018-11-11T21:12:53.755Z,100808.05
2018-11-11T21:15:57.990Z,100806.53
2018-11-11T21:19:02.347Z,100814.75
2018-11-11T21:22:11.440Z,100814.69
2018-11-11T21:25:15.736Z,100816.49
2018-11-11T21:28:20.070Z,100814.74
2018-11-11T21:31:24.475Z,100811.63
2018-11-11T21:34:28.854Z,100813.55
2018-11-11T21:37:33.204Z,100813.15
2018-11-11T21:40:37.501Z,100814.12
2018-11-11T21:43:42.584Z,100818.12
2018-11-11T21:46:46.851Z,100824.01
2018-11-11T21:49:51.131Z,100834.77
2018-11-11T21:53:09.983Z,100828.43
2018-11-11T21:56:14.410Z,100836.80
2018-11-11T21:59:18.612Z,100840.66
2018-11-11T22:02:22.897Z,100840.44
2018-11-11T22:05:27.197Z,100841.20
2018-11-11T22:08:31.436Z,100846.02
2018-11-11T22:11:35.725Z,100853.77
2018-11-11T22:14:39.962Z,100860.42
2018-11-11T22:17:44.196Z,100868.69
2018-11-11T22:20:48.874Z,100868.84
2018-11-11T22:23:53.139Z,100865.80
2018-11-11T22:26:57.411Z,100866.56
2018-11-11T22:30:01.645Z,100869.72
2018-11-11T22:33:05.937Z,100869.94
2018-11-11T22:36:10.165Z,100874.20
2018-11-11T22:39:14.437Z,100877.69
2018-11-11T22:42:18.728Z,100876.99
2018-11-11T22:45:22.977Z,100879.30
2018-11-11T22:48:27.249Z,100875.97
2018-11-11T22:51:31.564Z,100882.05
2018-11-11T22:54:35.801Z,100877.77
2018-11-11T22:57:40.403Z,100883.04
2018-11-11T23:00:49.932Z,100880.95
2018-11-11T23:03:54.185Z,100890.08
2018-11-11T23:06:58.420Z,100891.02
2018-11-11T23:10:02.688Z,100899.30
2018-11-11T23:13:07.081Z,100915.18
2018-11-11T23:16:11.365Z,100932.41
2018-11-11T23:19:15.856Z,100928.47
2018-11-11T23:22:20.094Z,100935.98
2018-11-11T23:25:24.364Z,100936.92
2018-11-11T23:28:28.682Z,100939.13
2018-11-11T23:31:32.841Z,100940.58
2018-11-11T23:34:37.120Z,100948.94
2018-11-11T23:37:42.403Z,100948.13
2018-11-11T23:40:46.673Z,100948.94
2018-11-11T23:43:50.932Z,100942.27
2018-11-11T23:46:55.176Z,100942.57
2018-11-11T23:49:59.411Z,100950.49
2018-11-11T23:53:03.666Z,100952.28
2018-11-11T23:56:07.952Z,100951.14
2018-11-11T23:59:12.193Z,100964.28
